Flight Track Log - Related Links

Times and Time Zones

All times are in EDT time to prevent confusion due to time zone crossing. See the AAY834 flight status page for this flight to view local times or setup timezone preferences in your user account.

Time Position Orientation Groundspeed Altitude Reporting Facility
EDT Latitude Longitude Course Direction KTS MPH feet Rate Location/Type
Thu 11:21:31 AM 27.9500 -82.6833 North 161 185 1,700  Level Tampa TRACON
Thu 11:22:25 AM 28.0000 -82.6667 16° North 243 280 3,400 1,333 Climbing Tampa TRACON
Thu 11:23:00 AM 28.7349 -82.6333 North  Level FlightAware Approximate
Thu 11:23:19 AM 28.0667 -82.6667 360° North 288 331 4,100  Level Tampa TRACON
Thu 11:24:00 AM 28.8397 -82.6333 360° North  Level FlightAware Approximate
Thu 11:24:13 AM 28.1333 -82.6833 348° North 280 322 6,400  Level Tampa TRACON
Thu 11:25:00 AM 28.9443 -82.6283 North  Level FlightAware Approximate
Thu 11:25:13 AM 28.2167 -82.7000 350° North 295 339 9,300  Level Tampa TRACON
Thu 11:26:00 AM 29.0487 -82.6196 North  Level FlightAware Approximate
Thu 11:26:13 AM 28.3000 -82.7000 360° North 330 380 11,000  Level Tampa TRACON
Thu 11:27:09 AM 28.3878 -82.6967 North 338 389 12,900 2,328 Climbing Jacksonville Center
Thu 11:28:09 AM 28.4900 -82.6967 360° North 349 402 15,500 2,250 Climbing Jacksonville Center
Thu 11:29:09 AM 28.5964 -82.6964 360° North 359 413 17,400 1,900 Climbing Jacksonville Center
Thu 11:30:09 AM 28.7028 -82.6914 North 373 429 19,300 1,900 Climbing Jacksonville Center
Thu 11:31:09 AM 28.8156 -82.6911 360° North 385 443 21,200 1,750 Climbing Jacksonville Center
Thu 11:32:09 AM 28.9239 -82.6908 360° North 390 449 22,800 1,550 Climbing Jacksonville Center
Thu 11:33:09 AM 29.0408 -82.6931 359° North 401 461 24,300 1,400 Climbing Jacksonville Center
Thu 11:34:09 AM 29.1578 -82.6906 North 406 467 25,600 1,350 Climbing Jacksonville Center
Thu 11:35:09 AM 29.2789 -82.6903 360° North 419 482 27,000 1,350 Climbing Jacksonville Center
Thu 11:36:09 AM 29.4000 -82.6900 360° North 425 489 28,300 1,240 Climbing Jacksonville Center
Thu 11:37:10 AM 29.5378 -82.6919 359° North 441 507 29,500 1,264 Climbing Jacksonville Center
Thu 11:42:43 AM 30.2174 -82.6877 North 422 486 36,600 1,087 Climbing FlightAware ADS-B
Thu 11:44:04 AM 30.3745 -82.6870 North 421 484 37,000 123 Climbing FlightAware ADS-B
Thu 11:45:09 AM 30.4856 -82.6806 North 418 481 36,900 -48 Descending Jacksonville Center
Thu 11:46:09 AM 30.5983 -82.6489 14° North 418 481 36,900  Level Jacksonville Center
Thu 11:47:09 AM 30.7089 -82.5953 23° Northeast 411 473 36,900  Level Jacksonville Center
Thu 11:48:09 AM 30.8153 -82.5467 21° North 417 480 36,900  Level Jacksonville Center
Thu 11:49:09 AM 30.9214 -82.4931 23° Northeast 417 480 36,900  Level Jacksonville Center
Thu 11:50:09 AM 31.0342 -82.4417 21° North 417 480 36,900  Level Jacksonville Center
Thu 11:51:09 AM 31.1425 -82.3900 22° Northeast 417 480 36,900  Level Jacksonville Center
Thu 11:52:09 AM 31.2508 -82.3408 21° North 417 480 36,900  Level Jacksonville Center
Thu 11:53:09 AM 31.3614 -82.2892 22° Northeast 417 480 36,900  Level Jacksonville Center
Thu 11:54:09 AM 31.4717 -82.2325 24° Northeast 417 480 36,900  Level Jacksonville Center
Thu 11:55:09 AM 31.5800 -82.1828 21° North 417 480 36,900 50 Level Jacksonville Center
Thu 11:56:09 AM 31.6903 -82.1258 24° Northeast 417 480 37,000 50 Climbing Jacksonville Center
Thu 11:57:09 AM 31.8111 -82.0686 22° Northeast 422 486 37,000 -50 Level Jacksonville Center
Thu 11:58:09 AM 31.9192 -82.0164 22° Northeast 422 486 36,900  Descending Jacksonville Center
Thu 11:59:09 AM 32.0211 -81.9689 22° Northeast 422 486 37,000 50 Climbing Jacksonville Center
Thu 12:00:09 PM 32.1419 -81.9111 22° Northeast 427 491 37,000  Level Jacksonville Center
Thu 12:01:09 PM 32.2519 -81.8558 23° Northeast 433 498 37,000  Level Jacksonville Center
Thu 12:02:09 PM 32.3664 -81.8006 22° Northeast 433 498 37,000 -50 Level Jacksonville Center
Thu 12:03:10 PM 32.4767 -81.7475 22° Northeast 433 498 36,900  Descending Jacksonville Center
Thu 12:04:09 PM 32.5764 -81.6944 24° Northeast 433 498 37,000 50 Climbing Jacksonville Center
Thu 12:05:09 PM 32.6842 -81.6214 30° Northeast 428 493 37,000  Level Jacksonville Center
Thu 12:11:02 PM 33.3080 -81.1625 32° Northeast 439 505 37,000  Level FlightAware ADS-B
Thu 12:11:45 PM 33.3808 -81.1091 32° Northeast 439 505 37,000 -400 Level FlightAware ADS-B
Thu 12:12:32 PM 33.4635 -81.0484 32° Northeast 439 505 36,400 -848 Descending FlightAware ADS-B
Thu 12:13:17 PM 33.5391 -80.9930 32° Northeast 442 509 35,700 -947 Descending FlightAware ADS-B
Thu 12:13:48 PM 33.5954 -80.9513 32° Northeast 446 513 35,200 -1,105 Descending FlightAware ADS-B
Thu 12:14:33 PM 33.6748 -80.8931 32° Northeast 449 517 34,300 -1,416 Descending FlightAware ADS-B
Thu 12:15:17 PM 33.7537 -80.8348 32° Northeast 457 526 33,100 -1,348 Descending FlightAware ADS-B
Thu 12:16:02 PM 33.8343 -80.7753 32° Northeast 453 521 32,300 -1,013 Descending FlightAware ADS-B
Thu 12:16:34 PM 33.8913 -80.7327 32° Northeast 440 506 31,800 -935 Descending FlightAware ADS-B
Thu 12:17:19 PM 33.9686 -80.6754 32° Northeast 433 498 31,100 -960 Descending FlightAware ADS-B
Thu 12:17:49 PM 34.0193 -80.6378 32° Northeast 427 491 30,600 -1,533 Descending FlightAware ADS-B
Thu 12:18:49 PM 34.1192 -80.5631 32° Northeast 431 496 28,800 -1,810 Descending FlightAware ADS-B
Thu 12:19:45 PM 34.2136 -80.4926 32° Northeast 421 484 27,100 -2,100 Descending FlightAware ADS-B
Thu 12:20:29 PM 34.2855 -80.4388 32° Northeast 408 470 25,300 -1,559 Descending FlightAware ADS-B
Thu 12:21:52 PM 34.4149 -80.3417 32° Northeast 401 461 23,800 -773 Descending FlightAware ADS-B
Thu 12:22:41 PM 34.4913 -80.2842 32° Northeast 390 449 23,600 -207 Descending FlightAware ADS-B
Thu 12:23:48 PM 34.5924 -80.2076 32° Northeast 387 445 23,400 -168 Descending FlightAware ADS-B
Thu 12:24:28 PM 34.5856 -80.2128 32° Northeast 388 447 23,300 -231 Descending FlightAware ADS-B (EFYL / YLI)
Thu 12:27:42 PM 34.9578 -79.9603 26° Northeast 382 440 22,500 -385 Descending FlightAware ADS-B (EFYL / YLI)
Thu 12:28:22 PM 35.0181 -79.9246 26° Northeast 380 437 21,800 -1,350 Descending FlightAware ADS-B (EFYL / YLI)
Thu 12:29:02 PM 35.0849 -79.8854 26° Northeast 378 435 20,700 -1,671 Descending FlightAware ADS-B (EFYL / YLI)
Thu 12:29:41 PM 35.1468 -79.8489 26° Northeast 374 430 19,600 -1,950 Descending FlightAware ADS-B (EFYL / YLI)
Thu 12:30:22 PM 35.2089 -79.8121 26° Northeast 375 432 18,100 -1,950 Descending FlightAware ADS-B (EFYL / YLI)
Thu 12:31:01 PM 35.2686 -79.7769 26° Northeast 371 427 17,000 -1,725 Descending FlightAware ADS-B (EFYL / YLI)
Thu 12:31:42 PM 35.3337 -79.7383 26° Northeast 366 421 15,800 -1,725 Descending FlightAware ADS-B (EFYL / YLI)
Thu 12:32:21 PM 35.3937 -79.7025 26° Northeast 360 414 14,700 -1,725 Descending FlightAware ADS-B (EFYL / YLI)
Thu 12:33:02 PM 35.4527 -79.6671 26° Northeast 354 407 13,500 -1,704 Descending FlightAware ADS-B (EFYL / YLI)
Thu 12:33:42 PM 35.5076 -79.6345 26° Northeast 348 400 12,400 -1,615 Descending FlightAware ADS-B (EFYL / YLI)
Thu 12:33:54 PM 35.5299 -79.6226 14° North 343 395 12,100 -1,138 Descending FlightAware ADS-B (EFYL / YLI)
Thu 12:34:40 PM 35.5951 -79.6440 329° Northwest 319 367 11,300 -886 Descending FlightAware ADS-B (EFYL / YLI)
Thu 12:35:22 PM 35.6482 -79.6828 329° Northwest 315 362 10,800 -750 Descending FlightAware ADS-B (EFYL / YLI)
Thu 12:36:00 PM 35.6949 -79.7160 329° Northwest 292 336 10,300 -1,053 Descending FlightAware ADS-B (EFYL / YLI)
Thu 12:36:19 PM 35.7190 -79.7280 348° North 289 333 9,800 -1,636 Descending FlightAware ADS-B (EFYL / YLI)
Thu 12:36:55 PM 35.7591 -79.7200 16° North 297 342 8,800 -1,000 Descending FlightAware ADS-B (EFYL / YLI)
Thu 12:37:19 PM 35.7931 -79.7084 16° North 295 339 8,800  Level FlightAware ADS-B (EFYL / YLI)
Thu 12:37:42 PM 35.8103 -79.7025 16° North 294 338 8,800  Level FlightAware ADS-B (EFYL / YLI)
Thu 12:38:01 PM 35.8345 -79.6941 16° North 293 337 8,800  Level FlightAware ADS-B (EFYL / YLI)
Thu 12:38:19 PM 35.8770 -79.6792 16° North 294 338 8,800  Level FlightAware ADS-B (EFYL / YLI)
Thu 12:38:36 PM 35.8964 -79.6724 16° North 294 338 8,800 -324 Level FlightAware ADS-B (EFYL / YLI)
Thu 12:38:56 PM 35.9253 -79.6623 16° North 294 338 8,600 -1,000 Descending FlightAware ADS-B (EFYL / YLI)
Thu 12:39:18 PM 35.9540 -79.6525 15° North 291 335 8,100 -1,271 Descending FlightAware ADS-B (EFYL / YLI)
Thu 12:40:21 PM 36.0266 -79.6757 304° West 274 315 6,800 -874 Descending FlightAware ADS-B (EFYL / YLI)
Thu 12:41:01 PM 36.0645 -79.7145 331° Northwest 278 320 6,600 -500 Descending FlightAware ADS-B (EFYL / YLI)
Thu 12:41:09 PM 36.0737 -79.7154 North 278 320 6,400 -1,385 Descending FlightAware ADS-B (EFYL / YLI)
Thu 12:41:40 PM 36.1138 -79.7121 North 277 319 5,700 -1,375 Descending FlightAware ADS-B (EFYL / YLI)
Thu 12:41:57 PM 36.1226 -79.7112 North 266 306 5,300 -980 Descending FlightAware ADS-B (EFYL / YLI)
Thu 12:42:29 PM 36.1726 -79.6983 24° Northeast 244 281 4,900 -552 Descending FlightAware ADS-B (EFYL / YLI)
Thu 12:43:24 PM 36.2234 -79.6727 320° Northwest 178 205 4,500 -382 Descending FlightAware ADS-B (EFYL / YLI)
Thu 12:45:22 PM 36.2315 -79.7645 228° Southwest 181 208 3,800 -403 Descending FlightAware ADS-B (EFYL / YLI)
Thu 12:45:38 PM 36.2222 -79.7768 227° Southwest 181 208 3,600 -750 Descending FlightAware ADS-B (EFYL / YLI)
Thu 12:48:00 PM 36.1013 -79.9411 228° Southwest  Level Estimated
Thu 12:49:00 PM 36.1000 -79.9333 22° Northeast  Level FlightAware Approximate
Thu 12:50:00 PM 36.1013 -79.9411 22° Northeast  Level Estimated
Thu 12:51:00 PM 36.1000 -79.9333 22° Northeast  Level FlightAware Approximate
Thu 12:52:00 PM 36.1013 -79.9411 22° Northeast  Level Estimated
Thu 12:53:00 PM 36.1000 -79.9333 22° Northeast  Level FlightAware Approximate
Thu 12:54:00 PM 36.1013 -79.9411 22° Northeast  Level Estimated
Thu 12:55:00 PM 36.1000 -79.9333 22° Northeast  Level FlightAware Approximate
Thu 12:56:00 PM 36.1013 -79.9411 22° Northeast  Level Estimated
Thu 12:57:00 PM 36.1000 -79.9333 22° Northeast  Level FlightAware Approximate
Thu 12:58:00 PM 36.1013 -79.9411 22° Northeast  Level Estimated

Login

Don't have an account? Register now (free) for customized features, flight alerts, and more!